Time;durP1;ratioP1;P1;durP2;ratioP2;P2;SDS_P1;SDS_P2;PMS_P1;PMS_P2;Temp;Humidity;BMP_temperature;BMP_pressure;BME280_temperature;BME280_humidity;BME280_pressure;Samples;Min_cycle;Max_cycle;Signal;HPM_P1;HPM_P2
2022/02/03 00:02:21;;;;;;;16.07;5.80;;;8.90;99.90;;;;;;5042720;28;20206;-80
2022/02/03 00:04:55;;;;;;;14.13;4.70;;;9.00;99.90;;;;;;5043582;28;20872;-80
2022/02/03 00:07:29;;;;;;;15.87;5.67;;;8.90;99.90;;;;;;5043239;28;20217;-79
2022/02/03 00:10:20;;;;;;;13.57;4.77;;;8.90;99.90;;;;;;5043333;28;21001;-78
2022/02/03 00:24:14;;;;;;;22.27;7.27;;;8.90;99.90;;;;;;5037957;28;20220;-78
2022/02/03 00:26:47;;;;;;;19.07;7.23;;;8.90;99.90;;;;;;5027512;28;20292;-78
2022/02/03 00:29:30;;;;;;;16.23;6.90;;;9.00;99.90;;;;;;5043925;28;20198;-77
2022/02/03 00:32:05;;;;;;;19.10;7.27;;;8.90;99.90;;;;;;5043260;28;20316;-77
2022/02/03 00:34:44;;;;;;;16.70;6.03;;;8.90;99.90;;;;;;5043358;28;20201;-78
2022/02/03 00:37:26;;;;;;;18.27;7.43;;;8.90;99.90;;;;;;5043146;28;20258;-78
2022/02/03 00:48:22;;;;;;;19.07;6.33;;;8.90;99.90;;;;;;5083404;28;20698;-79
2022/02/03 00:50:53;;;;;;;16.03;5.57;;;8.90;99.90;;;;;;5056649;28;20220;-79
2022/02/03 00:53:23;;;;;;;20.67;5.67;;;9.00;99.90;;;;;;5043538;28;20234;-79
2022/02/03 00:55:55;;;;;;;23.33;6.03;;;9.00;99.90;;;;;;5041796;28;20206;-78
2022/02/03 00:58:25;;;;;;;18.00;5.93;;;8.90;99.90;;;;;;5045907;28;20202;-78
2022/02/03 01:00:58;;;;;;;18.30;4.53;;;8.90;99.90;;;;;;5046226;28;20198;-78
2022/02/03 01:03:28;;;;;;;15.47;4.80;;;8.90;99.90;;;;;;5046552;28;20194;-79
2022/02/03 01:05:59;;;;;;;16.80;5.03;;;8.90;99.90;;;;;;5046857;28;20296;-79
2022/02/03 01:08:28;;;;;;;15.40;4.77;;;8.90;99.90;;;;;;5046186;28;20896;-79
2022/02/03 01:11:05;;;;;;;20.60;5.60;;;8.90;99.90;;;;;;5045698;28;20209;-79
2022/02/03 01:13:40;;;;;;;15.53;5.37;;;8.90;99.90;;;;;;5046167;28;20192;-77
2022/02/03 01:16:15;;;;;;;15.10;6.03;;;8.90;99.90;;;;;;5046541;28;20217;-78
2022/02/03 01:21:40;;;;;;;27.07;7.57;;;8.90;99.90;;;;;;5042986;28;20323;-79
2022/02/03 01:36:47;;;;;;;26.77;7.53;;;8.80;99.90;;;;;;5046259;28;20508;-78
2022/02/03 01:43:44;;;;;;;24.73;7.83;;;8.70;99.90;;;;;;5045940;28;20208;-80
2022/02/03 01:46:13;;;;;;;28.83;8.83;;;8.70;99.90;;;;;;5059642;28;20725;-77
2022/02/03 01:49:02;;;;;;;22.17;8.13;;;8.60;99.90;;;;;;5068907;28;20202;-79
2022/02/03 01:51:40;;;;;;;25.10;8.63;;;8.60;99.90;;;;;;5045708;28;20209;-78
2022/02/03 01:54:08;;;;;;;32.87;9.80;;;8.60;99.90;;;;;;5045557;28;20267;-77
2022/02/03 01:56:39;;;;;;;22.40;7.97;;;8.60;99.90;;;;;;5046031;28;20242;-78
2022/02/03 01:59:19;;;;;;;23.70;9.50;;;8.60;99.90;;;;;;5045716;28;20206;-78
2022/02/03 02:01:48;;;;;;;30.13;9.27;;;8.70;99.90;;;;;;5047865;28;20186;-79
2022/02/03 02:04:24;;;;;;;30.93;10.30;;;8.70;99.90;;;;;;5048011;28;20452;-81
2022/02/03 02:07:17;;;;;;;29.93;9.57;;;8.70;99.90;;;;;;5045960;28;20212;-79
2022/02/03 02:10:13;;;;;;;29.70;11.00;;;8.70;99.90;;;;;;5047001;28;20205;-78
2022/02/03 02:12:55;;;;;;;32.47;11.30;;;8.60;99.90;;;;;;5046446;28;20846;-79
2022/02/03 02:15:55;;;;;;;25.30;10.37;;;8.60;99.90;;;;;;5045718;28;20201;-79
2022/02/03 02:37:57;;;;;;;37.27;12.47;;;8.60;99.90;;;;;;5045132;28;20185;-79
2022/02/03 02:40:45;;;;;;;42.37;13.10;;;8.60;99.90;;;;;;5045958;28;20329;-79
2022/02/03 02:43:22;;;;;;;35.57;12.57;;;8.60;99.90;;;;;;5044003;28;20210;-78
2022/02/03 02:45:54;;;;;;;34.63;13.47;;;8.50;99.90;;;;;;5052538;28;20223;-77
2022/02/03 02:48:39;;;;;;;35.47;13.43;;;8.50;99.90;;;;;;5084083;28;20982;-79
2022/02/03 02:51:12;;;;;;;42.20;15.23;;;8.50;99.90;;;;;;5083249;28;20239;-79
2022/02/03 02:54:08;;;;;;;36.10;13.47;;;8.50;99.90;;;;;;5045003;28;20615;-79
2022/02/03 02:56:54;;;;;;;40.50;12.23;;;8.50;99.90;;;;;;5043891;28;20699;-79
2022/02/03 02:59:44;;;;;;;31.90;11.87;;;8.50;99.90;;;;;;5044758;28;20471;-79
2022/02/03 03:30:11;;;;;;;23.43;8.27;;;8.50;99.90;;;;;;5043662;28;20201;-80
2022/02/03 03:32:55;;;;;;;35.27;8.43;;;8.50;99.90;;;;;;5042765;28;20849;-79
2022/02/03 03:35:36;;;;;;;34.40;9.03;;;8.50;99.90;;;;;;5043755;28;20295;-80
2022/02/03 03:38:05;;;;;;;27.20;7.43;;;8.50;99.90;;;;;;5043206;28;20240;-78
2022/02/03 03:40:34;;;;;;;29.37;8.00;;;8.50;99.90;;;;;;5043999;28;20550;-79
2022/02/03 03:43:05;;;;;;;35.90;6.60;;;8.50;99.90;;;;;;5043103;28;20212;-79
2022/02/03 03:45:34;;;;;;;32.30;6.93;;;8.50;99.90;;;;;;5047394;28;20222;-80
2022/02/03 03:48:05;;;;;;;33.20;6.60;;;8.50;99.90;;;;;;5080344;28;20207;-78
2022/02/03 03:50:34;;;;;;;39.80;7.07;;;8.50;99.90;;;;;;5044723;28;20206;-78
2022/02/03 03:53:10;;;;;;;27.33;8.03;;;8.40;99.90;;;;;;5043166;28;20233;-79
2022/02/03 03:55:45;;;;;;;29.83;5.50;;;8.40;99.90;;;;;;5043659;28;20206;-78
2022/02/03 04:33:12;;;;;;;24.80;6.13;;;8.40;99.90;;;;;;5044753;28;20263;-79
2022/02/03 04:36:39;;;;;;;17.23;5.03;;;8.40;99.90;;;;;;5046934;28;20618;-79
2022/02/03 04:39:22;;;;;;;24.87;5.83;;;8.40;99.90;;;;;;5047031;28;20219;-80
2022/02/03 04:42:24;;;;;;;21.87;5.70;;;8.40;99.90;;;;;;5046432;28;20279;-79
2022/02/03 04:51:25;;;;;;;14.63;5.50;;;8.40;99.90;;;;;;5004670;28;20209;-78
2022/02/03 04:57:29;;;;;;;23.00;6.43;;;8.50;99.90;;;;;;5046184;28;20233;-78
2022/02/03 05:00:33;;;;;;;18.47;5.63;;;8.50;99.90;;;;;;5046975;28;20664;-79
2022/02/03 05:03:37;;;;;;;16.23;5.10;;;8.50;99.90;;;;;;5045778;28;20190;-79
2022/02/03 05:06:20;;;;;;;20.20;5.30;;;8.50;99.90;;;;;;5016810;28;20687;-80
2022/02/03 05:09:16;;;;;;;19.07;4.90;;;8.50;99.90;;;;;;5046946;28;20245;-79
2022/02/03 05:12:11;;;;;;;14.07;5.10;;;8.40;99.90;;;;;;5046507;28;20230;-78
2022/02/03 05:15:12;;;;;;;19.73;5.33;;;8.50;99.90;;;;;;5046346;28;20915;-79
2022/02/03 05:18:32;;;;;;;22.67;5.80;;;8.50;99.90;;;;;;5046043;28;20233;-78
2022/02/03 05:45:28;;;;;;;16.73;4.87;;;8.50;99.90;;;;;;4983377;28;20262;-78
2022/02/03 05:48:18;;;;;;;17.17;4.67;;;8.50;99.90;;;;;;5038565;28;20296;-79
2022/02/03 06:04:55;;;;;;;16.07;4.00;;;8.50;99.90;;;;;;5054331;28;20268;-77
2022/02/03 06:12:58;;;;;;;20.20;4.27;;;8.50;99.90;;;;;;5044938;28;20224;-78
2022/02/03 06:15:35;;;;;;;15.33;4.17;;;8.50;99.90;;;;;;5046205;28;20288;-78
2022/02/03 06:21:24;;;;;;;23.93;6.80;;;8.50;99.90;;;;;;5045938;28;20205;-77
2022/02/03 06:23:56;;;;;;;17.07;4.03;;;8.50;99.90;;;;;;5045197;28;20308;-78
2022/02/03 06:29:12;;;;;;;14.33;5.03;;;8.40;99.90;;;;;;5045700;28;20231;-78
2022/02/03 06:31:41;;;;;;;17.40;5.77;;;8.50;99.90;;;;;;5044839;28;20209;-78
2022/02/03 06:34:08;;;;;;;13.83;3.73;;;8.40;99.90;;;;;;5045952;28;20309;-78
2022/02/03 06:36:36;;;;;;;13.60;4.20;;;8.50;99.90;;;;;;5064985;28;20205;-80
2022/02/03 06:39:04;;;;;;;12.57;3.80;;;8.50;99.90;;;;;;5054730;28;20237;-79
2022/02/03 06:41:31;;;;;;;9.90;3.90;;;8.50;99.90;;;;;;5044694;28;20213;-78
2022/02/03 06:43:58;;;;;;;14.23;4.63;;;8.50;99.90;;;;;;5045046;28;20617;-78
2022/02/03 06:46:27;;;;;;;21.57;6.27;;;8.50;99.90;;;;;;5063171;28;20913;-78
2022/02/03 06:49:06;;;;;;;16.43;4.63;;;8.50;99.90;;;;;;5084209;28;20201;-79
2022/02/03 06:51:36;;;;;;;10.07;4.50;;;8.50;99.90;;;;;;5044537;28;20209;-79
2022/02/03 06:54:13;;;;;;;17.67;6.03;;;8.50;99.90;;;;;;5044156;28;20311;-78
2022/02/03 06:56:47;;;;;;;19.00;4.83;;;8.50;99.90;;;;;;5042833;28;20248;-79
2022/02/03 06:59:17;;;;;;;14.20;4.30;;;8.40;99.90;;;;;;5044665;28;20602;-80
2022/02/03 07:01:45;;;;;;;12.90;4.40;;;8.40;99.90;;;;;;5043501;28;20198;-79
2022/02/03 07:04:18;;;;;;;15.07;4.73;;;8.40;99.90;;;;;;5044002;28;20678;-78
2022/02/03 07:06:45;;;;;;;17.80;5.37;;;8.40;99.90;;;;;;5044147;28;20300;-78
2022/02/03 07:09:12;;;;;;;17.57;5.40;;;8.40;99.90;;;;;;5043239;28;20201;-78
2022/02/03 07:11:40;;;;;;;15.23;5.53;;;8.40;99.90;;;;;;5043929;28;20248;-79
2022/02/03 07:14:10;;;;;;;14.70;4.87;;;8.40;99.90;;;;;;5044577;28;20237;-78
2022/02/03 07:16:45;;;;;;;16.07;4.60;;;8.40;99.90;;;;;;5043099;28;20506;-80
2022/02/03 07:19:14;;;;;;;14.80;4.73;;;8.40;99.90;;;;;;5044181;28;20206;-79
2022/02/03 07:21:41;;;;;;;15.93;5.30;;;8.40;99.90;;;;;;5063462;23;20236;-77
2022/02/03 07:24:08;;;;;;;15.27;4.60;;;8.40;99.90;;;;;;5083941;28;20197;-79
2022/02/03 07:26:35;;;;;;;15.60;4.90;;;8.40;99.90;;;;;;5084626;28;20956;-79
2022/02/03 07:29:02;;;;;;;14.77;4.63;;;8.40;99.90;;;;;;5069767;28;20583;-78
2022/02/03 07:31:28;;;;;;;15.63;5.37;;;8.40;99.90;;;;;;5064142;28;20204;-79
2022/02/03 07:34:03;;;;;;;15.17;5.07;;;8.40;99.90;;;;;;5063618;28;20217;-78
2022/02/03 07:36:31;;;;;;;15.77;4.97;;;8.40;99.90;;;;;;5063813;28;20211;-78
2022/02/03 07:39:00;;;;;;;14.00;5.80;;;8.40;99.90;;;;;;5063708;28;20201;-80
2022/02/03 07:41:27;;;;;;;16.93;5.60;;;8.40;99.90;;;;;;5064329;28;20201;-81
2022/02/03 07:43:53;;;;;;;17.50;4.67;;;8.40;99.90;;;;;;5063402;28;20236;-79
2022/02/03 07:46:20;;;;;;;17.97;4.63;;;8.40;99.90;;;;;;5072085;28;20240;-80
2022/02/03 07:48:49;;;;;;;15.73;5.83;;;8.30;99.90;;;;;;5084233;28;20200;-78
2022/02/03 07:51:16;;;;;;;15.43;5.50;;;8.30;99.90;;;;;;5083255;28;20205;-79
2022/02/03 07:53:44;;;;;;;17.97;5.53;;;8.30;99.90;;;;;;5069237;28;20229;-79
2022/02/03 07:56:11;;;;;;;19.57;6.20;;;8.30;99.90;;;;;;5064076;28;20201;-81
2022/02/03 07:58:38;;;;;;;21.80;6.23;;;8.30;99.90;;;;;;5062945;28;20205;-80
2022/02/03 08:01:05;;;;;;;17.43;6.40;;;8.40;99.90;;;;;;5062933;28;20201;-80
2022/02/03 08:03:32;;;;;;;12.07;4.67;;;8.40;99.90;;;;;;5064094;28;20201;-81
2022/02/03 08:06:02;;;;;;;17.57;6.53;;;8.40;99.90;;;;;;5063328;28;20201;-79
2022/02/03 08:08:33;;;;;;;17.57;5.67;;;8.40;99.90;;;;;;5062877;28;20918;-76
2022/02/03 08:11:05;;;;;;;17.83;6.23;;;8.40;99.90;;;;;;5063146;28;20324;-77
2022/02/03 08:14:11;;;;;;;15.37;6.17;;;8.40;99.90;;;;;;5060345;28;20640;-77
2022/02/03 08:16:41;;;;;;;17.10;6.00;;;8.40;99.90;;;;;;5063113;28;21644;-78
2022/02/03 08:19:13;;;;;;;17.43;6.30;;;8.40;99.90;;;;;;5062908;28;20197;-79
2022/02/03 08:21:44;;;;;;;13.70;6.13;;;8.40;99.90;;;;;;5063761;28;20597;-79
2022/02/03 08:26:56;;;;;;;18.43;6.23;;;8.30;99.90;;;;;;5062975;28;20192;-78
2022/02/03 08:29:49;;;;;;;16.17;6.67;;;8.30;99.90;;;;;;5059280;28;20193;-79
2022/02/03 08:32:18;;;;;;;16.53;6.50;;;8.30;99.90;;;;;;5061484;28;20279;-79
2022/02/03 08:34:59;;;;;;;19.53;7.73;;;8.30;99.90;;;;;;5062397;28;20221;-77
2022/02/03 08:37:42;;;;;;;21.40;7.77;;;8.30;99.90;;;;;;5063129;28;20231;-77
2022/02/03 08:40:13;;;;;;;16.50;7.57;;;8.40;99.90;;;;;;5062308;28;20216;-79
2022/02/03 08:42:42;;;;;;;30.37;8.07;;;8.40;99.90;;;;;;5071514;28;20212;-78
2022/02/03 08:45:09;;;;;;;20.97;7.17;;;8.40;99.90;;;;;;5083333;28;20223;-77
2022/02/03 08:47:36;;;;;;;15.03;6.83;;;8.40;99.90;;;;;;5076586;28;20216;-79
2022/02/03 08:50:07;;;;;;;24.40;7.77;;;8.40;99.90;;;;;;5063107;28;20251;-79
2022/02/03 08:52:41;;;;;;;15.83;6.60;;;8.40;99.90;;;;;;5066090;28;20208;-78
2022/02/03 08:55:21;;;;;;;23.00;7.57;;;8.40;99.90;;;;;;5083288;28;20228;-77
2022/02/03 08:58:19;;;;;;;19.30;7.73;;;8.40;99.90;;;;;;5080303;28;20200;-78
2022/02/03 09:28:06;;;;;;;19.27;6.77;;;8.40;99.90;;;;;;5082753;28;20201;-79
2022/02/03 09:29:15;;;;;;;14.23;5.00;;;8.50;99.90;;;;;;5072483;28;20207;-79
2022/02/03 09:40:09;;;;;;;11.27;5.10;;;8.50;99.90;;;;;;5065601;28;20408;-79
2022/02/03 09:51:41;;;;;;;9.17;5.07;;;8.50;99.90;;;;;;5006699;28;20242;-79
2022/02/03 09:54:27;;;;;;;11.07;5.33;;;8.60;99.90;;;;;;5055362;28;20330;-80
2022/02/03 09:59:47;;;;;;;9.67;5.23;;;8.60;99.90;;;;;;5082936;28;20223;-80
2022/02/03 10:02:20;;;;;;;12.07;6.03;;;8.60;99.90;;;;;;5081510;28;20216;-77
2022/02/03 10:04:51;;;;;;;13.50;5.30;;;8.60;99.90;;;;;;5072713;28;20847;-79
2022/02/03 10:07:21;;;;;;;12.57;5.10;;;8.60;99.90;;;;;;5084443;28;20224;-79
2022/02/03 10:09:49;;;;;;;11.73;5.27;;;8.60;99.90;;;;;;5085568;28;20207;-81
2022/02/03 10:12:17;;;;;;;12.27;5.80;;;8.60;99.90;;;;;;5085183;28;20207;-79
2022/02/03 10:14:45;;;;;;;11.07;4.87;;;8.60;99.90;;;;;;5076466;28;20226;-79
2022/02/03 10:17:13;;;;;;;11.30;4.20;;;8.60;99.90;;;;;;5079663;28;20216;-78
2022/02/03 10:19:42;;;;;;;10.80;5.17;;;8.60;99.90;;;;;;5100802;28;20284;-80
2022/02/03 10:22:16;;;;;;;7.47;3.67;;;8.60;99.90;;;;;;5079238;28;20240;-79
2022/02/03 10:24:46;;;;;;;9.73;3.43;;;8.60;99.90;;;;;;5079952;28;20639;-79
2022/02/03 10:27:31;;;;;;;5.03;2.93;;;8.60;99.90;;;;;;5064217;28;20204;-78
2022/02/03 10:30:13;;;;;;;6.07;3.60;;;8.60;99.90;;;;;;5065383;28;20197;-78
2022/02/03 10:32:43;;;;;;;5.37;2.70;;;8.60;99.90;;;;;;5064944;28;20254;-77
2022/02/03 10:35:27;;;;;;;7.27;2.80;;;8.50;99.90;;;;;;5064565;28;20247;-78
2022/02/03 10:47:02;;;;;;;5.97;3.30;;;8.50;99.90;;;;;;5076749;28;20204;-77
2022/02/03 10:58:24;;;;;;;9.80;3.23;;;8.50;99.90;;;;;;5060174;28;20213;-78
2022/02/03 11:01:14;;;;;;;12.87;3.57;;;8.50;99.90;;;;;;5064329;28;20234;-77
2022/02/03 11:06:28;;;;;;;8.27;3.43;;;8.50;99.90;;;;;;5061221;28;20254;-78
2022/02/03 11:09:06;;;;;;;7.97;3.30;;;8.50;99.90;;;;;;5080995;28;20212;-78
2022/02/03 11:11:38;;;;;;;7.87;3.27;;;8.50;99.90;;;;;;5083940;28;20208;-78
2022/02/03 11:14:06;;;;;;;8.07;3.53;;;8.50;99.90;;;;;;5083762;28;20224;-78
2022/02/03 11:16:38;;;;;;;10.53;3.53;;;8.50;99.90;;;;;;5076090;28;20220;-79
2022/02/03 11:19:10;;;;;;;6.57;3.70;;;8.60;99.90;;;;;;5083653;28;20528;-78
2022/02/03 11:21:40;;;;;;;10.13;4.17;;;8.50;99.90;;;;;;5063832;28;20775;-77
2022/02/03 11:24:15;;;;;;;14.30;5.43;;;8.50;99.90;;;;;;5063480;28;20220;-79
2022/02/03 11:27:00;;;;;;;11.20;4.90;;;8.50;99.90;;;;;;5063664;28;20213;-79
2022/02/03 11:33:07;;;;;;;14.87;5.87;;;8.40;99.90;;;;;;5020775;28;20755;-80
2022/02/03 11:47:28;;;;;;;19.00;7.17;;;8.40;99.90;;;;;;5024244;28;20251;-78
2022/02/03 11:50:18;;;;;;;17.57;7.17;;;8.40;99.90;;;;;;5063404;28;20209;-80
2022/02/03 12:01:35;;;;;;;20.63;9.60;;;8.50;99.90;;;;;;5058540;28;20208;-79
2022/02/03 12:07:22;;;;;;;25.27;11.47;;;8.50;99.90;;;;;;5064338;28;20224;-79
2022/02/03 12:18:15;;;;;;;27.43;10.33;;;8.40;99.90;;;;;;5063163;28;20295;-80
2022/02/03 12:20:49;;;;;;;31.27;12.27;;;8.40;99.90;;;;;;5064575;28;20189;-81
2022/02/03 12:23:44;;;;;;;23.43;10.63;;;8.40;99.90;;;;;;5063726;28;20934;-81
2022/02/03 12:26:19;;;;;;;24.03;10.40;;;8.40;99.90;;;;;;5083143;28;20204;-81
2022/02/03 12:28:53;;;;;;;28.13;11.20;;;8.40;99.90;;;;;;5084725;28;20196;-80
2022/02/03 12:39:50;;;;;;;25.40;11.03;;;8.50;99.90;;;;;;5043203;28;20296;-80
2022/02/03 12:42:23;;;;;;;23.87;10.50;;;8.50;99.90;;;;;;5064226;28;20213;-83
2022/02/03 12:45:00;;;;;;;25.60;11.37;;;8.50;99.90;;;;;;5066968;28;20213;-83
2022/02/03 12:47:27;;;;;;;19.30;10.47;;;8.40;99.90;;;;;;5071902;28;20221;-83
2022/02/03 12:49:55;;;;;;;22.27;10.93;;;8.40;99.90;;;;;;5066307;28;20209;-82
2022/02/03 12:52:24;;;;;;;28.80;11.50;;;8.40;99.90;;;;;;5066919;28;20202;-82
2022/02/03 12:54:51;;;;;;;22.00;10.37;;;8.40;99.90;;;;;;5068506;28;20228;-81
2022/02/03 12:57:33;;;;;;;28.30;11.63;;;8.40;99.90;;;;;;5070128;28;20205;-81
2022/02/03 13:00:13;;;;;;;21.00;10.33;;;8.40;99.90;;;;;;5069822;28;20602;-82
2022/02/03 13:02:40;;;;;;;24.23;10.77;;;8.40;99.90;;;;;;5069875;28;20582;-82
2022/02/03 13:05:09;;;;;;;19.97;10.97;;;8.40;99.90;;;;;;5070599;28;20578;-81
2022/02/03 13:07:35;;;;;;;24.43;10.80;;;8.50;99.90;;;;;;5069037;28;20201;-81
2022/02/03 13:10:08;;;;;;;23.17;11.03;;;8.50;99.90;;;;;;5069874;28;20209;-81
2022/02/03 13:12:40;;;;;;;20.63;11.27;;;8.40;99.90;;;;;;5069588;28;20201;-82
2022/02/03 13:15:08;;;;;;;21.40;11.57;;;8.40;99.90;;;;;;5068296;28;20233;-79
2022/02/03 13:17:39;;;;;;;25.33;13.00;;;8.40;99.90;;;;;;5070305;28;20527;-81
2022/02/03 13:20:14;;;;;;;23.67;11.73;;;8.40;99.90;;;;;;5071040;28;20289;-83
2022/02/03 13:22:48;;;;;;;24.63;11.00;;;8.30;99.90;;;;;;5076490;28;20233;-80
2022/02/03 13:25:21;;;;;;;21.93;11.30;;;8.30;99.90;;;;;;5083770;28;20192;-81
2022/02/03 13:27:59;;;;;;;22.77;11.43;;;8.30;99.90;;;;;;5107146;28;20197;-79
2022/02/03 13:30:42;;;;;;;21.53;10.67;;;8.30;99.90;;;;;;5097268;28;20203;-85
2022/02/03 13:33:11;;;;;;;23.83;11.57;;;8.30;99.90;;;;;;5075579;28;20292;-84
2022/02/03 13:35:49;;;;;;;18.63;11.00;;;8.30;99.90;;;;;;5068087;28;20320;-81
2022/02/03 13:38:25;;;;;;;22.37;10.50;;;8.30;99.90;;;;;;5068892;28;20209;-81
2022/02/03 13:41:11;;;;;;;22.67;11.57;;;8.30;99.90;;;;;;5071054;28;20229;-81
2022/02/03 13:43:40;;;;;;;21.20;11.93;;;8.30;99.90;;;;;;5067160;28;20216;-89
2022/02/03 13:46:08;;;;;;;20.57;12.20;;;8.30;99.90;;;;;;5072937;28;20316;-78
2022/02/03 13:48:37;;;;;;;19.67;11.63;;;8.30;99.90;;;;;;5067140;28;20217;-78
2022/02/03 13:51:09;;;;;;;21.87;11.13;;;8.30;99.90;;;;;;5065732;28;20667;-80
2022/02/03 13:53:41;;;;;;;25.17;11.57;;;8.30;99.90;;;;;;5068781;28;20213;-87
2022/02/03 14:13:36;;;;;;;26.77;11.23;;;8.30;99.90;;;;;;4988456;28;20827;-83
2022/02/03 14:16:18;;;;;;;21.80;11.70;;;8.40;99.90;;;;;;4988011;28;20978;-83
2022/02/03 14:21:35;;;;;;;31.90;18.60;;;8.40;99.90;;;;;;5069248;28;20371;-84
2022/02/03 14:26:55;;;;;;;24.83;10.30;;;8.50;99.90;;;;;;5069713;28;20231;-83
2022/02/03 14:29:24;;;;;;;27.30;10.53;;;8.50;99.90;;;;;;5069330;28;20197;-82
2022/02/03 14:31:58;;;;;;;23.73;9.40;;;8.50;99.90;;;;;;5068630;28;20782;-82
2022/02/03 14:34:29;;;;;;;18.27;8.30;;;8.50;99.90;;;;;;5068544;28;20314;-79
2022/02/03 14:37:03;;;;;;;29.13;10.40;;;8.60;99.90;;;;;;5067157;28;20574;-84
2022/02/03 14:39:47;;;;;;;22.87;8.40;;;8.60;99.90;;;;;;5068782;28;20205;-85
2022/02/03 14:42:14;;;;;;;24.47;7.27;;;8.60;99.90;;;;;;5085575;28;20301;-82
2022/02/03 14:44:41;;;;;;;26.50;8.40;;;8.50;99.90;;;;;;5089427;28;20279;-84
2022/02/03 14:47:09;;;;;;;29.20;7.17;;;8.60;99.90;;;;;;5083912;28;20212;-81
2022/02/03 14:49:37;;;;;;;27.13;8.03;;;8.60;99.90;;;;;;5069368;28;20200;-81
2022/02/03 14:52:12;;;;;;;29.37;7.10;;;8.60;99.90;;;;;;5068556;28;20214;-81
2022/02/03 15:00:13;;;;;;;21.60;7.90;;;8.70;99.90;;;;;;5066950;28;20180;-84
2022/02/03 15:02:40;;;;;;;17.83;6.93;;;8.70;99.90;;;;;;5064662;28;20205;-80
2022/02/03 15:05:10;;;;;;;26.00;8.40;;;8.60;99.90;;;;;;5065337;28;20393;-79
2022/02/03 15:07:41;;;;;;;22.47;7.70;;;8.60;99.90;;;;;;5064603;28;20193;-80
2022/02/03 15:10:42;;;;;;;24.87;7.60;;;8.60;99.90;;;;;;5065210;28;20207;-80
2022/02/03 15:13:16;;;;;;;23.83;8.87;;;8.60;99.90;;;;;;5065145;28;20212;-80
2022/02/03 15:15:43;;;;;;;23.77;8.13;;;8.50;99.90;;;;;;5064551;28;20209;-81
2022/02/03 15:18:10;;;;;;;23.93;9.47;;;8.50;99.90;;;;;;5066302;28;20675;-81
2022/02/03 15:20:37;;;;;;;26.20;9.43;;;8.50;99.90;;;;;;5064789;28;20197;-85
2022/02/03 15:23:04;;;;;;;20.53;10.00;;;8.50;99.90;;;;;;5065064;28;20233;-84
2022/02/03 15:25:32;;;;;;;20.87;8.83;;;8.60;99.90;;;;;;5065998;28;20204;-83
2022/02/03 15:27:59;;;;;;;23.23;10.50;;;8.50;99.90;;;;;;5067880;28;20193;-84
2022/02/03 15:30:26;;;;;;;25.60;12.23;;;8.50;99.90;;;;;;5067116;28;20399;-85
2022/02/03 15:32:53;;;;;;;31.87;12.53;;;8.40;99.90;;;;;;5065666;28;20473;-83
2022/02/03 15:35:26;;;;;;;36.63;14.13;;;8.50;99.90;;;;;;5081462;23;20228;-84
2022/02/03 15:37:53;;;;;;;25.80;13.30;;;8.50;99.90;;;;;;5087203;28;20595;-85
2022/02/03 15:40:23;;;;;;;24.47;10.63;;;8.50;99.90;;;;;;5086678;28;20619;-86
2022/02/03 15:42:58;;;;;;;23.37;10.40;;;8.40;99.90;;;;;;5067564;28;20216;-85
2022/02/03 15:45:26;;;;;;;29.97;10.63;;;8.40;99.90;;;;;;5066253;28;20347;-84
2022/02/03 15:47:57;;;;;;;22.67;9.13;;;8.40;99.90;;;;;;5064640;28;20216;-84
2022/02/03 15:56:21;;;;;;;29.27;8.93;;;8.40;99.90;;;;;;5070204;28;20276;-91
2022/02/03 16:01:49;;;;;;;21.10;8.03;;;8.40;99.90;;;;;;5070619;28;20928;-82
2022/02/03 16:13:10;;;;;;;22.43;6.70;;;8.40;99.90;;;;;;5070270;28;20355;-84
2022/02/03 16:18:06;;;;;;;18.47;6.97;;;8.40;99.90;;;;;;5085013;28;20200;-85
2022/02/03 16:20:38;;;;;;;19.53;7.03;;;8.40;99.90;;;;;;5091164;28;20219;-85
2022/02/03 16:23:18;;;;;;;15.97;6.10;;;8.40;99.90;;;;;;5091332;28;20211;-87
2022/02/03 16:26:35;;;;;;;19.27;6.83;;;8.40;99.90;;;;;;5087149;28;20360;-82
2022/02/03 16:51:01;;;;;;;17.73;6.90;;;8.30;99.90;;;;;;5071702;28;20289;-89
2022/02/03 16:53:28;;;;;;;28.20;8.53;;;8.30;99.90;;;;;;5072602;28;20259;-85
2022/02/03 16:55:57;;;;;;;22.93;8.80;;;8.30;99.90;;;;;;5071696;28;20235;-87
2022/02/03 16:58:25;;;;;;;28.50;7.33;;;8.30;99.90;;;;;;5074583;28;20206;-87
2022/02/03 17:00:52;;;;;;;18.97;6.90;;;8.30;99.90;;;;;;5074536;28;20207;-80
2022/02/03 17:03:20;;;;;;;28.47;8.53;;;8.30;99.90;;;;;;5093123;28;20193;-88
2022/02/03 17:05:47;;;;;;;20.17;7.30;;;8.30;99.90;;;;;;5089824;28;20200;-88
2022/02/03 17:08:14;;;;;;;24.17;8.27;;;8.30;99.90;;;;;;5078762;28;20209;-85
2022/02/03 17:10:40;;;;;;;20.17;5.90;;;8.30;99.90;;;;;;5069426;28;20189;-84
2022/02/03 17:13:07;;;;;;;20.03;6.83;;;8.30;99.90;;;;;;5070138;28;20319;-81
2022/02/03 17:15:35;;;;;;;27.83;8.50;;;8.30;99.90;;;;;;5070449;28;20523;-85
2022/02/03 17:18:02;;;;;;;21.03;6.10;;;8.30;99.90;;;;;;5070134;28;20239;-86
2022/02/03 17:20:33;;;;;;;24.53;6.67;;;8.30;99.90;;;;;;5072088;28;20233;-91
2022/02/03 17:23:03;;;;;;;21.33;6.70;;;8.30;99.90;;;;;;5072571;28;20203;-85
2022/02/03 17:25:35;;;;;;;20.50;6.73;;;8.30;99.90;;;;;;5071954;28;20193;-89
2022/02/03 17:28:08;;;;;;;22.50;7.87;;;8.30;99.90;;;;;;5070976;28;20213;-89
2022/02/03 17:30:40;;;;;;;18.33;6.70;;;8.30;99.90;;;;;;5071287;28;20296;-82
2022/02/03 18:09:15;;;;;;;18.73;4.13;;;8.30;99.90;;;;;;5092464;28;20191;-86
2022/02/03 18:17:05;;;;;;;13.93;3.90;;;8.30;99.90;;;;;;5073240;28;20300;-85
2022/02/03 18:17:36;;;;;;;14.50;3.50;;;8.20;99.90;;;;;;5069630;28;20282;-82
2022/02/03 18:26:28;;;;;;;14.37;4.13;;;8.20;99.90;;;;;;5071582;28;20196;-83
2022/02/03 18:32:06;;;;;;;14.67;3.90;;;8.20;99.90;;;;;;5070930;28;20245;-86
2022/02/03 18:37:32;;;;;;;12.53;3.90;;;8.10;99.90;;;;;;5036950;28;20531;-83
2022/02/03 20:39:39;;;;;;;14.40;3.63;;;7.30;99.90;;;;;;4817617;28;20534;-83
2022/02/03 20:42:07;;;;;;;11.87;2.70;;;7.30;99.90;;;;;;4971453;28;20212;-84
2022/02/03 20:44:34;;;;;;;7.57;2.70;;;7.30;99.90;;;;;;4968608;28;20208;-85
2022/02/03 20:47:01;;;;;;;11.40;2.90;;;7.30;99.90;;;;;;4982845;28;20211;-85
2022/02/03 20:49:27;;;;;;;11.60;3.30;;;7.40;99.90;;;;;;4973467;28;20299;-84
2022/02/03 20:51:55;;;;;;;15.13;3.40;;;7.40;99.90;;;;;;4970581;28;20209;-85
2022/02/03 20:54:22;;;;;;;17.83;4.30;;;7.40;99.90;;;;;;4970886;28;20295;-84
2022/02/03 20:56:50;;;;;;;13.17;3.30;;;7.40;99.90;;;;;;4971034;28;20228;-84
2022/02/03 20:59:18;;;;;;;14.17;4.00;;;7.40;99.90;;;;;;4970742;28;20246;-86
2022/02/03 21:01:50;;;;;;;15.30;3.20;;;7.30;99.90;;;;;;4983215;28;20263;-84
2022/02/03 21:04:30;;;;;;;13.97;3.10;;;7.30;99.90;;;;;;4990073;28;20196;-84
2022/02/03 21:06:57;;;;;;;10.93;2.37;;;7.30;99.90;;;;;;4984996;28;20582;-85
2022/02/03 21:09:24;;;;;;;8.97;2.60;;;7.30;99.90;;;;;;4968628;28;20223;-85
2022/02/03 21:11:52;;;;;;;10.30;2.40;;;7.30;99.90;;;;;;4967696;28;20204;-86
2022/02/03 21:14:19;;;;;;;6.50;2.13;;;7.30;99.90;;;;;;4970985;28;20244;-84
2022/02/03 21:16:50;;;;;;;10.83;2.60;;;7.30;99.90;;;;;;4974573;28;20220;-86
2022/02/03 21:19:17;;;;;;;5.63;2.00;;;7.40;99.90;;;;;;4975109;28;20209;-85
2022/02/03 21:21:44;;;;;;;10.60;2.37;;;7.40;99.90;;;;;;4972086;28;20209;-85
2022/02/03 21:24:11;;;;;;;11.80;2.97;;;7.40;99.90;;;;;;4974858;28;20208;-85
2022/02/03 21:26:40;;;;;;;12.43;4.77;;;7.50;99.90;;;;;;4974456;28;20602;-85
2022/02/03 21:29:08;;;;;;;21.37;5.57;;;7.50;99.90;;;;;;4974630;28;20569;-84
2022/02/03 21:31:35;;;;;;;15.07;4.30;;;7.50;99.90;;;;;;4957540;28;20200;-84
2022/02/03 21:34:02;;;;;;;9.13;3.70;;;7.50;99.90;;;;;;4973537;28;20299;-84
2022/02/03 21:37:24;;;;;;;16.00;4.43;;;7.50;99.90;;;;;;4968123;28;20352;-80
2022/02/03 21:39:54;;;;;;;15.60;4.07;;;7.60;99.90;;;;;;4972607;28;20215;-84
2022/02/03 21:42:21;;;;;;;7.67;2.97;;;7.60;99.90;;;;;;4973763;28;20196;-81
2022/02/03 21:44:49;;;;;;;6.03;3.00;;;7.60;99.90;;;;;;4973429;28;20200;-84
2022/02/03 21:47:17;;;;;;;9.50;3.40;;;7.70;99.90;;;;;;4985798;28;20204;-85
2022/02/03 21:49:43;;;;;;;10.17;3.17;;;7.70;99.90;;;;;;4972999;28;20557;-83
2022/02/03 21:52:18;;;;;;;18.40;3.23;;;7.70;99.90;;;;;;4973930;28;20629;-84
2022/02/03 21:54:45;;;;;;;8.93;2.80;;;7.70;99.90;;;;;;4972770;28;20203;-85
2022/02/03 21:57:12;;;;;;;10.63;3.70;;;7.70;99.90;;;;;;4973505;28;20665;-84
2022/02/03 21:59:39;;;;;;;8.87;3.00;;;7.70;99.90;;;;;;4969734;28;20208;-84
2022/02/03 22:02:08;;;;;;;12.17;3.30;;;7.70;99.90;;;;;;4980371;28;20216;-84
2022/02/03 22:04:35;;;;;;;12.87;4.10;;;7.80;99.90;;;;;;4990642;28;20212;-83
2022/02/03 22:07:02;;;;;;;8.90;3.50;;;7.80;99.90;;;;;;4973350;28;20648;-85
2022/02/03 22:09:29;;;;;;;16.33;3.67;;;7.80;99.90;;;;;;4973190;28;20220;-85
2022/02/03 22:11:56;;;;;;;12.90;3.53;;;7.80;99.90;;;;;;4973563;28;20205;-85
2022/02/03 22:14:22;;;;;;;10.40;2.37;;;7.80;99.90;;;;;;4974180;28;20267;-85
2022/02/03 22:16:50;;;;;;;8.00;2.13;;;7.70;99.90;;;;;;4973043;28;20239;-83